Time;durP1;ratioP1;P1;durP2;ratioP2;P2;SDS_P1;SDS_P2;PMS_P1;PMS_P2;Temp;Humidity;BMP_temperature;BMP_pressure;BME280_temperature;BME280_humidity;BME280_pressure;Samples;Min_cycle;Max_cycle;Signal;HPM_P1;HPM_P2
2021/04/27 00:01:19;;;;;;;15.80;5.60;;;;;;;5.62;100.00;101314.53;5176835;28;20033;-78
2021/04/27 00:03:49;;;;;;;11.73;5.45;;;;;;;5.60;100.00;101305.81;5184179;28;20022;-78
2021/04/27 00:06:20;;;;;;;15.82;5.32;;;;;;;5.60;100.00;101307.63;5171795;28;20094;-78
2021/04/27 00:08:51;;;;;;;15.68;5.43;;;;;;;5.60;100.00;101311.13;5189014;28;20033;-78
2021/04/27 00:11:21;;;;;;;9.90;5.00;;;;;;;5.57;100.00;101302.53;5187273;28;20029;-78
2021/04/27 00:13:52;;;;;;;8.32;4.45;;;;;;;5.57;100.00;101299.88;5178601;28;20369;-78
2021/04/27 00:16:22;;;;;;;12.13;4.55;;;;;;;5.60;100.00;101289.84;5182577;28;20037;-78
2021/04/27 00:18:53;;;;;;;14.57;5.30;;;;;;;5.58;100.00;101291.78;5177349;28;20022;-78
2021/04/27 00:21:23;;;;;;;13.65;5.10;;;;;;;5.56;100.00;101288.38;5183106;28;20028;-78
2021/04/27 00:23:54;;;;;;;14.13;4.57;;;;;;;5.56;100.00;101282.22;5186983;28;20018;-78
2021/04/27 00:26:25;;;;;;;9.73;5.00;;;;;;;5.53;100.00;101285.16;5167213;28;20030;-76
2021/04/27 00:28:56;;;;;;;15.68;4.93;;;;;;;5.47;100.00;101286.47;5166452;28;20484;-77
2021/04/27 00:31:28;;;;;;;15.98;4.40;;;;;;;5.44;100.00;101284.91;5179398;28;20030;-76
2021/04/27 00:33:58;;;;;;;8.52;4.80;;;;;;;5.45;100.00;101281.28;5166423;28;20022;-78
2021/04/27 00:36:29;;;;;;;13.60;4.72;;;;;;;5.46;100.00;101284.78;5178223;28;20033;-78
2021/04/27 00:38:59;;;;;;;11.50;4.70;;;;;;;5.40;100.00;101283.44;5180304;28;20568;-78
2021/04/27 00:41:30;;;;;;;11.65;5.05;;;;;;;5.39;100.00;101273.78;5176349;28;20058;-78
2021/04/27 00:44:01;;;;;;;19.85;4.90;;;;;;;5.31;100.00;101278.84;5180980;28;20080;-78
2021/04/27 00:46:32;;;;;;;31.25;6.18;;;;;;;5.30;100.00;101271.84;5174406;28;20113;-75
2021/04/27 00:49:03;;;;;;;10.52;4.85;;;;;;;5.28;100.00;101267.63;5177729;28;20030;-78
2021/04/27 00:51:34;;;;;;;12.82;5.15;;;;;;;5.17;100.00;101260.47;5177053;28;20396;-77
2021/04/27 00:54:07;;;;;;;14.38;4.85;;;;;;;5.14;100.00;101260.75;5164748;28;20026;-77
2021/04/27 00:56:38;;;;;;;13.75;4.95;;;;;;;5.11;100.00;101266.28;5164191;28;20438;-76
2021/04/27 00:59:08;;;;;;;13.35;4.85;;;;;;;5.06;100.00;101263.13;5172054;28;20041;-78
2021/04/27 01:01:39;;;;;;;13.60;4.88;;;;;;;5.02;100.00;101262.56;5181519;28;20487;-78
2021/04/27 01:04:09;;;;;;;14.43;5.35;;;;;;;4.94;100.00;101254.31;5164309;28;20023;-76
2021/04/27 01:06:40;;;;;;;10.77;4.53;;;;;;;4.93;100.00;101250.81;5177490;28;20029;-76
2021/04/27 01:09:26;;;;;;;9.82;4.57;;;;;;;4.94;100.00;101246.34;5166166;28;20400;-78
2021/04/27 01:12:09;;;;;;;12.57;4.75;;;;;;;4.84;100.00;101248.03;5187059;28;20037;-78
2021/04/27 01:14:45;;;;;;;10.65;4.38;;;;;;;4.77;100.00;101246.78;5175844;28;20034;-78
2021/04/27 01:17:20;;;;;;;12.98;5.43;;;;;;;4.66;100.00;101239.66;5187132;28;20127;-78
2021/04/27 01:20:09;;;;;;;12.88;5.05;;;;;;;4.56;100.00;101228.88;5168693;28;20014;-78
2021/04/27 01:22:45;;;;;;;13.40;5.30;;;;;;;4.49;100.00;101233.00;5166031;28;20045;-78
2021/04/27 01:25:24;;;;;;;10.65;4.90;;;;;;;4.43;100.00;101229.97;5166626;28;20023;-78
2021/04/27 01:27:55;;;;;;;12.48;4.60;;;;;;;4.33;100.00;101230.66;5170891;28;20049;-78
2021/04/27 01:30:26;;;;;;;13.48;4.95;;;;;;;4.32;100.00;101218.34;5174627;28;20026;-78
2021/04/27 01:32:57;;;;;;;10.25;5.13;;;;;;;4.32;100.00;101215.69;5164284;28;20022;-78
2021/04/27 01:35:29;;;;;;;12.80;4.80;;;;;;;4.28;100.00;101227.50;5166174;28;20117;-78
2021/04/27 01:38:00;;;;;;;12.90;4.95;;;;;;;4.26;100.00;101218.78;5172996;28;20097;-78
2021/04/27 01:40:31;;;;;;;13.27;4.30;;;;;;;4.28;100.00;101214.22;5184543;28;20033;-78
2021/04/27 01:43:03;;;;;;;13.48;5.07;;;;;;;4.24;100.00;101214.56;5165107;28;20038;-78
2021/04/27 01:45:36;;;;;;;12.02;5.05;;;;;;;4.20;100.00;101219.28;5164561;28;20038;-75
2021/04/27 01:48:12;;;;;;;12.32;4.72;;;;;;;4.17;100.00;101216.88;5176560;28;20049;-77
2021/04/27 01:50:43;;;;;;;12.90;4.68;;;;;;;4.14;100.00;101214.44;5171574;28;20116;-77
2021/04/27 01:53:17;;;;;;;13.20;5.15;;;;;;;4.12;100.00;101213.72;5172069;28;20035;-78
2021/04/27 01:55:49;;;;;;;9.20;4.50;;;;;;;4.13;100.00;101215.41;5179588;28;20021;-77
2021/04/27 01:58:20;;;;;;;13.18;4.80;;;;;;;4.05;100.00;101207.16;5183048;28;20033;-78
2021/04/27 02:00:50;;;;;;;16.40;4.68;;;;;;;4.04;100.00;101210.78;5177151;28;20488;-78
2021/04/27 02:03:23;;;;;;;10.80;5.25;;;;;;;4.06;100.00;101207.03;5189673;28;20045;-78
2021/04/27 02:05:59;;;;;;;10.77;5.72;;;;;;;4.04;100.00;101206.31;5187413;28;20041;-77
2021/04/27 02:08:32;;;;;;;11.45;4.85;;;;;;;4.05;100.00;101208.00;5189293;28;20061;-78
2021/04/27 02:11:14;;;;;;;10.18;5.25;;;;;;;3.95;100.00;101208.81;5177624;28;20041;-78
2021/04/27 02:13:45;;;;;;;14.60;4.88;;;;;;;3.88;100.00;101205.75;5183449;28;20037;-75
2021/04/27 02:16:17;;;;;;;14.95;5.32;;;;;;;3.82;100.00;101208.88;5173259;28;20026;-77
2021/04/27 02:18:54;;;;;;;11.77;5.10;;;;;;;3.73;100.00;101205.09;5181850;28;20073;-77
2021/04/27 02:21:25;;;;;;;14.35;4.60;;;;;;;3.71;100.00;101201.69;5175650;28;20045;-78
2021/04/27 02:23:56;;;;;;;9.70;4.75;;;;;;;3.65;100.00;101194.19;5179815;28;20101;-78
2021/04/27 02:26:29;;;;;;;12.35;4.70;;;;;;;3.65;100.00;101196.84;5175856;28;20049;-77
2021/04/27 02:29:03;;;;;;;14.15;5.82;;;;;;;3.61;100.00;101196.25;5184548;28;20108;-75
2021/04/27 02:31:34;;;;;;;9.27;4.57;;;;;;;3.55;100.00;101198.47;5183709;28;20034;-77
2021/04/27 02:34:05;;;;;;;16.02;5.30;;;;;;;3.43;100.00;101200.22;5185912;28;20292;-78
2021/04/27 02:36:37;;;;;;;11.57;4.90;;;;;;;3.47;100.00;101196.41;5191075;28;20514;-78
2021/04/27 02:39:09;;;;;;;9.93;5.13;;;;;;;3.47;100.00;101191.09;5178569;28;20080;-76
2021/04/27 02:41:39;;;;;;;10.40;4.80;;;;;;;3.46;100.00;101196.50;5190148;28;20104;-76
2021/04/27 02:44:11;;;;;;;18.35;5.53;;;;;;;3.46;100.00;101193.84;5176725;28;20109;-78
2021/04/27 02:46:44;;;;;;;10.18;4.75;;;;;;;3.44;100.00;101191.31;5178844;28;20022;-78
2021/04/27 02:49:14;;;;;;;16.23;6.00;;;;;;;3.38;100.00;101192.59;5181886;28;20415;-78
2021/04/27 02:51:45;;;;;;;21.00;6.90;;;;;;;3.31;100.00;101191.38;5169652;28;20030;-78
2021/04/27 02:54:15;;;;;;;18.00;5.85;;;;;;;3.27;100.00;101181.09;5183006;28;20092;-78
2021/04/27 02:56:46;;;;;;;12.15;6.07;;;;;;;3.22;100.00;101178.78;5177288;28;20030;-76
2021/04/27 02:59:16;;;;;;;11.70;5.90;;;;;;;3.20;100.00;101188.63;5159021;28;20022;-78
2021/04/27 03:01:47;;;;;;;11.40;5.88;;;;;;;3.24;100.00;101184.81;5168795;28;20022;-78
2021/04/27 03:04:18;;;;;;;17.65;5.90;;;;;;;3.37;100.00;101182.97;5169252;28;20025;-78
2021/04/27 03:06:48;;;;;;;12.32;5.80;;;;;;;3.45;100.00;101168.28;5172726;28;20029;-76
2021/04/27 03:09:18;;;;;;;11.23;5.93;;;;;;;3.44;100.00;101179.84;5179030;28;20031;-78
2021/04/27 03:11:49;;;;;;;12.52;5.60;;;;;;;3.40;100.00;101173.06;5175280;28;20108;-77
2021/04/27 03:14:19;;;;;;;14.30;5.25;;;;;;;3.30;100.00;101168.44;5177651;28;20046;-78
2021/04/27 03:16:50;;;;;;;14.35;5.90;;;;;;;3.22;100.00;101165.50;5182944;28;20038;-78
2021/04/27 03:19:20;;;;;;;14.95;5.53;;;;;;;3.19;100.00;101162.22;5183415;28;20454;-76
2021/04/27 03:21:51;;;;;;;14.57;5.63;;;;;;;3.19;100.00;101167.53;5182618;28;20085;-77
2021/04/27 03:24:21;;;;;;;15.52;6.45;;;;;;;3.14;100.00;101159.91;5169420;28;20365;-78
2021/04/27 03:26:52;;;;;;;14.82;5.63;;;;;;;3.11;100.00;101153.03;5159108;28;20048;-76
2021/04/27 03:29:23;;;;;;;10.70;5.38;;;;;;;3.04;100.00;101154.41;5169008;28;20034;-75
2021/04/27 03:31:53;;;;;;;10.75;5.97;;;;;;;2.95;100.00;101155.06;5169846;28;20038;-77
2021/04/27 03:34:24;;;;;;;15.45;7.55;;;;;;;2.87;100.00;101156.59;5186689;28;20045;-78
2021/04/27 03:36:54;;;;;;;15.20;5.90;;;;;;;2.79;100.00;101149.19;5179924;28;20022;-77
2021/04/27 03:39:24;;;;;;;13.98;6.85;;;;;;;2.83;100.00;101155.97;5187438;28;20369;-76
2021/04/27 03:41:55;;;;;;;21.35;6.53;;;;;;;2.88;100.00;101158.28;5177891;28;20443;-77
2021/04/27 03:44:25;;;;;;;13.98;6.93;;;;;;;2.83;100.00;101153.31;5187481;28;20032;-78
2021/04/27 03:46:56;;;;;;;15.77;5.82;;;;;;;2.76;100.00;101147.59;5176546;28;20053;-78
2021/04/27 03:49:27;;;;;;;12.00;5.30;;;;;;;2.70;100.00;101155.97;5175584;28;20451;-77
2021/04/27 03:51:58;;;;;;;17.77;6.25;;;;;;;2.56;100.00;101151.66;5174371;28;20388;-78
2021/04/27 03:54:28;;;;;;;14.52;5.78;;;;;;;2.50;100.00;101159.16;5168998;28;20030;-78
2021/04/27 03:56:59;;;;;;;22.35;6.97;;;;;;;2.42;100.00;101145.63;5164449;28;20081;-77
2021/04/27 03:59:30;;;;;;;11.35;5.97;;;;;;;2.37;100.00;101151.25;5160099;28;20033;-77
2021/04/27 04:02:00;;;;;;;15.40;5.95;;;;;;;2.31;100.00;101147.22;5182858;28;20503;-78
2021/04/27 04:04:31;;;;;;;12.43;5.55;;;;;;;2.24;100.00;101151.22;5169842;28;20082;-77
2021/04/27 04:07:02;;;;;;;16.27;6.13;;;;;;;2.19;100.00;101149.84;5189683;28;20480;-78
2021/04/27 04:09:32;;;;;;;18.13;8.20;;;;;;;2.82;100.00;101156.94;5188185;28;20026;-78
2021/04/27 04:12:07;;;;;;;24.70;9.68;;;;;;;3.47;100.00;101151.31;5176449;28;20155;-78
2021/04/27 04:14:37;;;;;;;28.52;10.35;;;;;;;4.10;100.00;101160.69;5173094;28;20034;-77
2021/04/27 04:17:08;;;;;;;16.10;7.28;;;;;;;4.01;100.00;101150.78;5184686;28;20027;-78
2021/04/27 04:19:38;;;;;;;14.02;5.70;;;;;;;3.79;100.00;101143.59;5170164;28;20543;-78
2021/04/27 04:22:09;;;;;;;11.20;5.28;;;;;;;3.45;100.00;101139.09;5180540;28;20076;-78
2021/04/27 04:24:40;;;;;;;11.52;5.30;;;;;;;3.15;100.00;101137.72;5189689;28;20479;-75
2021/04/27 04:27:10;;;;;;;21.05;6.78;;;;;;;2.91;100.00;101140.34;5185148;28;20033;-77
2021/04/27 04:29:41;;;;;;;14.48;5.93;;;;;;;2.75;100.00;101139.75;5175484;28;20022;-78
2021/04/27 04:32:13;;;;;;;15.13;6.93;;;;;;;2.61;100.00;101138.09;5204401;28;20387;-77
2021/04/27 04:34:44;;;;;;;17.83;7.35;;;;;;;2.53;100.00;101141.25;5188927;28;20026;-78
2021/04/27 04:37:14;;;;;;;21.27;7.25;;;;;;;2.43;100.00;101142.03;5186496;28;20471;-78
2021/04/27 04:39:45;;;;;;;18.50;7.10;;;;;;;2.42;100.00;101146.47;5178298;28;20152;-78
2021/04/27 04:42:15;;;;;;;22.35;8.50;;;;;;;2.47;100.00;101141.69;5174799;28;20109;-78
2021/04/27 04:44:46;;;;;;;22.15;7.82;;;;;;;2.48;100.00;101142.53;5178516;28;20022;-75
2021/04/27 04:47:16;;;;;;;27.35;8.23;;;;;;;2.46;100.00;101144.44;5168966;28;20080;-78
2021/04/27 04:49:47;;;;;;;24.73;7.57;;;;;;;2.47;100.00;101138.22;5178232;28;20026;-78
2021/04/27 04:52:17;;;;;;;23.00;7.25;;;;;;;2.41;100.00;101151.84;5168950;28;20034;-78
2021/04/27 04:54:49;;;;;;;23.77;7.68;;;;;;;2.37;100.00;101135.34;5168666;28;20045;-75
2021/04/27 04:57:20;;;;;;;16.13;8.27;;;;;;;2.41;100.00;101138.63;5168148;28;20030;-78
2021/04/27 04:59:51;;;;;;;20.65;10.73;;;;;;;2.42;100.00;101142.97;5168583;28;20033;-78
2021/04/27 05:02:21;;;;;;;21.67;8.55;;;;;;;2.38;100.00;101136.19;5167562;28;20452;-78
2021/04/27 05:04:52;;;;;;;27.38;15.30;;;;;;;2.45;100.00;101140.09;5180378;28;20030;-78
2021/04/27 05:07:25;;;;;;;31.95;12.05;;;;;;;2.56;100.00;101132.25;5175594;28;20026;-78
2021/04/27 05:09:55;;;;;;;21.35;10.88;;;;;;;2.63;100.00;101138.81;5181810;28;20026;-78
2021/04/27 05:12:26;;;;;;;22.05;9.45;;;;;;;2.64;100.00;101132.56;5166437;28;20049;-78
2021/04/27 05:14:56;;;;;;;25.08;8.13;;;;;;;2.74;100.00;101138.06;5171223;28;20076;-78
2021/04/27 05:17:27;;;;;;;19.60;7.65;;;;;;;2.86;100.00;101145.13;5186230;28;20030;-77
2021/04/27 05:19:59;;;;;;;19.42;9.00;;;;;;;2.99;100.00;101137.16;5180785;28;20018;-78
2021/04/27 05:22:30;;;;;;;29.70;16.42;;;;;;;3.32;100.00;101137.38;5180178;28;20049;-78
2021/04/27 05:25:01;;;;;;;24.88;8.88;;;;;;;4.03;100.00;101148.03;5189085;28;20022;-77
2021/04/27 05:27:31;;;;;;;18.83;7.65;;;;;;;5.79;100.00;101139.28;5171694;28;20026;-78
2021/04/27 05:30:03;;;;;;;21.92;7.50;;;;;;;7.65;100.00;101138.09;5174166;28;20101;-77
2021/04/27 05:32:33;;;;;;;19.70;6.28;;;;;;;9.29;100.00;101147.50;5171167;28;20031;-78
2021/04/27 05:35:06;;;;;;;13.68;5.80;;;;;;;10.30;100.00;101142.75;5165354;28;20366;-78
2021/04/27 05:37:37;;;;;;;11.63;5.53;;;;;;;11.45;76.21;101139.56;5166375;28;20097;-79
2021/04/27 05:40:08;;;;;;;19.25;5.85;;;;;;;11.85;58.92;101136.13;5177460;28;20499;-79
2021/04/27 05:42:39;;;;;;;294.70;142.70;;;;;;;12.53;60.75;101145.63;5171187;28;20420;-79
2021/04/27 05:45:10;;;;;;;16.77;5.70;;;;;;;12.60;55.78;101141.25;5183642;28;20105;-78
2021/04/27 05:47:40;;;;;;;13.00;5.20;;;;;;;13.63;50.33;101138.41;5163408;28;20037;-78
2021/04/27 05:50:11;;;;;;;13.75;6.32;;;;;;;13.82;49.60;101144.34;5164311;28;20388;-78
2021/04/27 05:52:41;;;;;;;13.23;5.57;;;;;;;14.15;47.96;101143.03;5183253;28;20030;-78
2021/04/27 05:55:12;;;;;;;9.52;5.18;;;;;;;13.85;49.06;101143.97;5183221;28;20018;-78
2021/04/27 05:57:43;;;;;;;9.95;5.38;;;;;;;13.89;48.17;101145.31;5161146;28;20087;-79
2021/04/27 06:00:14;;;;;;;19.23;5.28;;;;;;;13.62;47.38;101135.91;5171939;28;20488;-76
2021/04/27 06:02:44;;;;;;;11.80;5.20;;;;;;;12.65;51.49;101144.25;5166348;28;20034;-79
2021/04/27 06:05:15;;;;;;;19.33;5.57;;;;;;;13.16;50.06;101144.72;5181797;28;20557;-79
2021/04/27 06:07:46;;;;;;;11.10;5.70;;;;;;;13.26;50.39;101147.25;5180938;28;20053;-77
2021/04/27 06:10:16;;;;;;;11.90;5.22;;;;;;;13.34;48.64;101135.56;5176189;28;20025;-80
2021/04/27 06:12:46;;;;;;;13.63;5.80;;;;;;;12.52;50.37;101135.88;5188320;28;20041;-80
2021/04/27 06:15:17;;;;;;;10.80;5.85;;;;;;;12.00;51.79;101136.28;5175549;28;20030;-80
2021/04/27 06:17:48;;;;;;;12.55;6.38;;;;;;;10.62;57.28;101126.81;5186950;28;20376;-79
2021/04/27 06:20:18;;;;;;;15.30;5.88;;;;;;;9.60;67.72;101124.72;5176283;28;20117;-78
2021/04/27 06:22:49;;;;;;;13.98;6.72;;;;;;;8.89;83.34;101134.47;5178386;28;20555;-80
2021/04/27 06:25:20;;;;;;;13.27;7.38;;;;;;;8.39;91.00;101132.13;5177855;28;20025;-78
2021/04/27 06:27:50;;;;;;;18.90;7.40;;;;;;;8.10;100.00;101127.66;5178108;28;20045;-78
2021/04/27 06:30:22;;;;;;;21.60;9.23;;;;;;;7.84;100.00;101119.41;5167745;28;20023;-78
2021/04/27 06:32:53;;;;;;;16.98;8.40;;;;;;;7.80;100.00;101120.66;5186882;28;20026;-79
2021/04/27 06:35:25;;;;;;;18.67;7.70;;;;;;;7.76;100.00;101117.44;5187655;28;20026;-79
2021/04/27 06:37:56;;;;;;;13.73;8.05;;;;;;;7.96;100.00;101120.91;5180586;28;20050;-79
2021/04/27 06:40:27;;;;;;;18.25;8.25;;;;;;;7.96;100.00;101115.56;5181459;28;20510;-78
2021/04/27 06:42:58;;;;;;;17.48;9.30;;;;;;;7.95;97.09;101121.91;5190620;28;20064;-81
2021/04/27 06:45:28;;;;;;;14.50;8.70;;;;;;;7.90;98.63;101118.00;5175582;28;20022;-78
2021/04/27 06:47:59;;;;;;;14.32;8.15;;;;;;;7.99;96.31;101125.16;5180513;28;20521;-79
2021/04/27 06:50:30;;;;;;;15.90;8.40;;;;;;;7.96;100.00;101118.25;5170531;28;20484;-79
2021/04/27 06:53:00;;;;;;;15.30;8.23;;;;;;;7.99;91.13;101120.66;5170277;28;20030;-77
2021/04/27 06:55:32;;;;;;;18.25;9.35;;;;;;;8.04;96.06;101113.03;5170704;28;20022;-79
2021/04/27 06:58:08;;;;;;;263.45;226.70;;;;;;;8.20;100.00;101106.25;5171657;28;20135;-79
2021/04/27 07:00:39;;;;;;;;;;;;;;;8.42;92.40;101111.28;5177979;28;20537;-79
2021/04/27 07:03:09;;;;;;;16.92;8.80;;;;;;;8.51;91.04;101105.06;5189810;28;19913;-79
2021/04/27 07:05:42;;;;;;;22.42;8.45;;;;;;;8.67;87.52;101100.91;5172427;28;20034;-80
2021/04/27 07:08:12;;;;;;;18.65;8.48;;;;;;;8.70;89.61;101104.16;5185936;28;20264;-80
2021/04/27 07:10:43;;;;;;;18.80;8.57;;;;;;;8.61;91.99;101093.50;5191362;28;20101;-80
2021/04/27 07:13:13;;;;;;;75.82;67.90;;;;;;;8.85;99.45;101096.47;5187948;28;20030;-80
2021/04/27 07:15:44;;;;;;;30.92;9.98;;;;;;;8.91;92.40;101098.53;5164827;28;20090;-81
2021/04/27 07:18:15;;;;;;;20.05;8.75;;;;;;;8.87;83.61;101099.81;5165482;28;20018;-80
2021/04/27 07:20:45;;;;;;;16.27;7.88;;;;;;;9.04;82.11;101099.03;5205457;28;20076;-80
2021/04/27 07:23:16;;;;;;;15.70;7.93;;;;;;;8.91;83.17;101095.03;5205848;28;20030;-80
2021/04/27 07:25:46;;;;;;;15.60;7.45;;;;;;;9.08;85.48;101104.91;5178127;28;20105;-79
2021/04/27 07:28:17;;;;;;;19.45;8.55;;;;;;;9.20;81.05;101094.84;5175640;28;20112;-77
2021/04/27 07:30:49;;;;;;;21.35;8.15;;;;;;;9.39;79.03;101097.41;5183307;28;20030;-79
2021/04/27 07:33:20;;;;;;;18.70;7.55;;;;;;;9.57;73.18;101087.50;5170226;28;20034;-79
2021/04/27 07:35:50;;;;;;;13.25;7.13;;;;;;;9.49;71.33;101087.47;5170509;28;20026;-79
2021/04/27 07:38:20;;;;;;;14.80;7.55;;;;;;;9.48;76.89;101082.22;5180465;28;20101;-79
2021/04/27 07:40:51;;;;;;;14.77;7.10;;;;;;;9.42;73.22;101085.53;5176883;28;20022;-80
2021/04/27 07:43:22;;;;;;;23.55;8.15;;;;;;;9.50;74.52;101089.13;5180408;28;20266;-79
2021/04/27 07:45:52;;;;;;;12.82;7.78;;;;;;;9.77;69.62;101080.16;5170334;28;20064;-79
2021/04/27 07:48:22;;;;;;;19.55;8.57;;;;;;;9.99;69.82;101081.50;5181626;28;20053;-79
2021/04/27 07:50:53;;;;;;;17.50;7.63;;;;;;;10.13;70.10;101075.53;5177238;28;20034;-79
2021/04/27 07:53:24;;;;;;;15.52;7.40;;;;;;;10.32;67.23;101084.41;5189896;28;20029;-76
2021/04/27 07:55:54;;;;;;;18.83;7.85;;;;;;;10.41;66.45;101075.41;5158762;28;20030;-79
2021/04/27 07:58:24;;;;;;;19.88;8.07;;;;;;;10.56;61.20;101079.19;5158848;28;20118;-78
2021/04/27 08:00:55;;;;;;;16.88;6.75;;;;;;;10.76;64.65;101074.41;5190377;28;20387;-79
2021/04/27 08:03:25;;;;;;;15.23;7.95;;;;;;;11.09;61.29;101072.69;5176274;28;20057;-79
2021/04/27 08:05:56;;;;;;;15.77;7.50;;;;;;;11.11;59.93;101072.50;5190524;28;20041;-81
2021/04/27 08:08:27;;;;;;;21.10;8.05;;;;;;;11.23;58.90;101076.53;5185182;28;20105;-79
2021/04/27 08:10:57;;;;;;;12.57;7.38;;;;;;;11.51;59.82;101074.41;5169737;28;20034;-80
2021/04/27 08:13:28;;;;;;;15.88;8.23;;;;;;;11.60;60.68;101067.22;5184890;28;20050;-82
2021/04/27 08:15:58;;;;;;;18.50;7.32;;;;;;;11.87;58.22;101076.78;5169866;28;20029;-79
2021/04/27 08:18:29;;;;;;;15.35;7.75;;;;;;;12.12;56.18;101070.38;5162885;28;20056;-79
2021/04/27 08:20:59;;;;;;;15.18;7.72;;;;;;;12.40;56.59;101072.69;5176387;28;20023;-79
2021/04/27 08:23:30;;;;;;;15.52;7.30;;;;;;;12.87;53.28;101061.88;5177885;28;20033;-79
2021/04/27 08:26:00;;;;;;;14.40;7.40;;;;;;;13.04;55.00;101059.09;5190972;28;20056;-80
2021/04/27 08:28:31;;;;;;;17.42;7.93;;;;;;;13.46;48.42;101050.63;5174561;28;20026;-79
2021/04/27 08:31:02;;;;;;;14.40;7.38;;;;;;;13.67;48.57;101049.94;5173022;28;20056;-79
2021/04/27 08:33:32;;;;;;;12.48;7.07;;;;;;;13.67;48.78;101052.63;5189441;28;20266;-80
2021/04/27 08:36:05;;;;;;;14.90;8.07;;;;;;;13.55;48.01;101048.66;5184597;28;20031;-80
2021/04/27 08:38:35;;;;;;;16.23;7.25;;;;;;;13.55;50.72;101043.28;5169189;28;20659;-80
2021/04/27 08:41:06;;;;;;;15.23;7.50;;;;;;;13.83;49.00;101054.34;5182831;28;20022;-80
2021/04/27 08:43:37;;;;;;;19.13;7.80;;;;;;;13.90;48.64;101057.97;5169293;28;20474;-79
2021/04/27 08:46:08;;;;;;;12.32;7.35;;;;;;;13.94;49.14;101048.50;5169316;28;20026;-80
2021/04/27 08:48:38;;;;;;;17.27;7.45;;;;;;;13.94;49.31;101052.03;5168734;28;20045;-78
2021/04/27 08:51:11;;;;;;;16.00;7.22;;;;;;;14.08;49.07;101044.16;5178809;28;20064;-77
2021/04/27 08:53:42;;;;;;;15.27;7.25;;;;;;;14.46;45.35;101042.22;5173065;28;20038;-80
2021/04/27 08:56:12;;;;;;;19.35;7.60;;;;;;;14.48;45.49;101042.91;5179731;28;20076;-80
2021/04/27 08:58:44;;;;;;;17.15;7.53;;;;;;;14.69;48.35;101042.97;5160770;28;20018;-80
2021/04/27 09:01:14;;;;;;;17.50;6.95;;;;;;;14.69;43.78;101037.56;5177634;28;20038;-80
2021/04/27 09:03:50;;;;;;;17.30;8.18;;;;;;;14.65;45.61;101038.97;5181712;28;20022;-80
2021/04/27 09:06:23;;;;;;;15.60;8.07;;;;;;;14.69;44.85;101034.03;5169473;28;20026;-80
2021/04/27 09:08:53;;;;;;;11.70;6.95;;;;;;;14.64;44.00;101034.59;5168714;28;20038;-81
2021/04/27 09:11:35;;;;;;;16.48;7.97;;;;;;;14.75;44.36;101027.88;5183818;28;20040;-81
2021/04/27 09:14:14;;;;;;;15.50;7.90;;;;;;;14.72;46.47;101025.56;5180329;28;20034;-84
2021/04/27 09:16:47;;;;;;;19.80;7.63;;;;;;;14.76;46.51;101032.25;5183090;28;20030;-79
2021/04/27 09:19:46;;;;;;;18.67;8.60;;;;;;;14.94;45.86;101021.03;5182537;28;20096;-79
2021/04/27 09:22:21;;;;;;;17.98;8.18;;;;;;;14.81;45.41;101013.63;5177873;28;20037;-81
2021/04/27 09:24:51;;;;;;;;;;;;;;;15.37;46.77;101010.25;5170226;28;20018;-81
2021/04/27 09:27:28;;;;;;;19.63;7.93;;;;;;;15.41;44.46;101020.50;5177189;28;19910;-82
2021/04/27 09:30:15;;;;;;;21.10;8.18;;;;;;;15.32;45.67;101015.41;5188682;28;20117;-81
2021/04/27 09:33:01;;;;;;;26.45;9.98;;;;;;;15.50;45.39;100999.56;5188999;28;20499;-81
2021/04/27 09:35:35;;;;;;;17.98;7.75;;;;;;;15.62;45.88;101006.13;5175162;28;20030;-82
2021/04/27 09:38:08;;;;;;;14.63;8.70;;;;;;;15.64;43.47;101008.66;5169140;28;20026;-81
2021/04/27 09:40:53;;;;;;;17.17;8.27;;;;;;;15.71;43.08;101004.13;5171614;28;20391;-82
2021/04/27 09:43:32;;;;;;;12.55;8.00;;;;;;;15.53;43.97;100993.75;5189302;28;20052;-78
2021/04/27 09:46:05;;;;;;;22.42;9.98;;;;;;;15.22;45.40;101000.34;5169178;28;20084;-80
2021/04/27 09:48:41;;;;;;;20.95;9.25;;;;;;;14.96;45.76;100997.34;5164830;28;20285;-82
2021/04/27 09:51:12;;;;;;;19.38;8.77;;;;;;;14.91;44.14;100994.38;5174281;28;20034;-83
2021/04/27 09:53:55;;;;;;;16.08;8.88;;;;;;;15.16;47.03;100992.16;5169243;28;20117;-81
2021/04/27 09:56:39;;;;;;;20.38;9.02;;;;;;;15.26;45.66;100989.97;5186780;28;20033;-79
2021/04/27 09:59:14;;;;;;;20.15;9.13;;;;;;;15.52;46.72;100987.53;5166008;28;20081;-78
2021/04/27 10:01:48;;;;;;;22.40;9.00;;;;;;;15.53;43.95;100983.78;5174689;28;20030;-80
2021/04/27 10:04:21;;;;;;;22.13;9.75;;;;;;;15.57;44.83;100978.00;5176436;28;20022;-78
2021/04/27 10:06:52;;;;;;;18.67;8.65;;;;;;;15.80;43.70;100979.44;5167021;28;20032;-80
2021/04/27 10:09:26;;;;;;;18.38;9.38;;;;;;;15.98;39.67;100976.22;5178228;28;20427;-80
2021/04/27 10:11:57;;;;;;;18.15;9.57;;;;;;;16.09;44.00;100969.44;5180813;28;20105;-78
2021/04/27 10:14:28;;;;;;;17.27;8.93;;;;;;;16.29;41.56;100962.25;5168579;28;20085;-80
2021/04/27 10:16:58;;;;;;;15.70;8.52;;;;;;;16.44;39.68;100966.69;5190759;28;20053;-79
2021/04/27 10:19:29;;;;;;;17.55;8.30;;;;;;;16.62;37.52;100950.72;5176503;28;20030;-80
2021/04/27 10:22:00;;;;;;;17.27;9.00;;;;;;;16.77;38.91;100951.44;5169033;28;20038;-79
2021/04/27 10:24:32;;;;;;;16.17;9.35;;;;;;;16.83;39.25;100947.91;5166480;28;20122;-79
2021/04/27 10:27:03;;;;;;;17.40;9.23;;;;;;;16.66;38.52;100949.25;5173123;28;20037;-80
2021/04/27 10:29:33;;;;;;;16.58;9.43;;;;;;;16.56;38.11;100946.09;5176008;28;20037;-80
2021/04/27 10:32:17;;;;;;;14.43;8.57;;;;;;;16.68;38.06;100939.06;5181469;28;20036;-80
2021/04/27 10:34:56;;;;;;;18.55;9.30;;;;;;;16.71;38.53;100938.69;5182243;28;20030;-80
2021/04/27 10:37:29;;;;;;;17.15;9.60;;;;;;;16.77;36.31;100931.63;5172874;28;20034;-82
2021/04/27 10:40:00;;;;;;;14.90;9.05;;;;;;;16.74;37.47;100932.03;5184872;28;20066;-82
2021/04/27 10:42:33;;;;;;;19.15;8.40;;;;;;;17.17;37.89;100934.38;5199455;28;20114;-82
2021/04/27 10:45:07;;;;;;;14.93;7.93;;;;;;;17.21;38.55;100928.34;5194920;28;20029;-82
2021/04/27 10:47:43;;;;;;;14.70;7.78;;;;;;;17.17;35.92;100927.13;5190679;28;20460;-85
2021/04/27 10:50:29;;;;;;;12.63;7.53;;;;;;;17.08;38.86;100933.78;5203624;28;20112;-84
2021/04/27 10:53:18;;;;;;;;;;;;;;;17.17;34.03;100929.81;5194048;28;20082;-83
2021/04/27 10:55:54;;;;;;;16.00;8.80;;;;;;;17.35;35.33;100927.31;5197364;28;19921;-85
2021/04/27 10:58:48;;;;;;;18.90;10.00;;;;;;;17.47;33.42;100918.53;5173579;28;20058;-84
2021/04/27 11:01:21;;;;;;;21.63;9.15;;;;;;;17.57;34.79;100917.09;5185560;28;20026;-82
2021/04/27 11:03:54;;;;;;;12.05;7.10;;;;;;;17.79;35.90;100925.84;5183696;28;20029;-84
2021/04/27 11:06:24;;;;;;;13.57;9.13;;;;;;;18.20;34.40;100919.25;5186954;28;20050;-84
2021/04/27 11:08:59;;;;;;;13.80;7.70;;;;;;;18.31;33.65;100917.75;5202118;28;20022;-83
2021/04/27 11:11:32;;;;;;;15.43;6.80;;;;;;;18.21;34.69;100918.19;5204376;28;20029;-85
2021/04/27 11:14:11;;;;;;;16.67;7.85;;;;;;;18.03;30.46;100904.50;5192660;28;20499;-81
2021/04/27 11:16:46;;;;;;;15.05;7.03;;;;;;;17.88;32.56;100903.91;5193403;28;20034;-80
2021/04/27 11:19:19;;;;;;;10.57;6.53;;;;;;;17.89;33.11;100894.72;5192323;28;20025;-85
2021/04/27 11:21:55;;;;;;;12.02;5.45;;;;;;;17.78;34.65;100893.50;5190754;28;20094;-84
2021/04/27 11:24:30;;;;;;;9.68;5.80;;;;;;;17.99;33.61;100890.50;5185496;28;20023;-84
2021/04/27 11:27:01;;;;;;;8.47;5.53;;;;;;;17.85;33.43;100888.88;5180583;28;20059;-80
2021/04/27 11:29:34;;;;;;;9.20;5.65;;;;;;;17.68;34.20;100882.22;5196282;28;20040;-80
2021/04/27 11:32:13;;;;;;;25.75;15.25;;;;;;;17.64;31.32;100881.81;5201178;28;20463;-81
2021/04/27 11:34:50;;;;;;;10.68;6.22;;;;;;;17.46;36.74;100892.47;5200678;28;20037;-82
2021/04/27 11:37:24;;;;;;;14.80;6.25;;;;;;;17.32;33.21;100892.50;5188332;28;20030;-82
2021/04/27 11:39:56;;;;;;;12.75;6.60;;;;;;;17.30;31.41;100886.44;5191554;28;20031;-85
2021/04/27 11:42:30;;;;;;;11.73;6.20;;;;;;;17.30;32.69;100889.13;5186821;28;20060;-86